createdAt,value
2023-02-24T00:02:20.103Z,11.50
2023-02-24T00:04:51.576Z,11.60
2023-02-24T00:07:18.950Z,10.43
2023-02-24T00:09:46.591Z,10.60
2023-02-24T00:12:14.828Z,11.15
2023-02-24T00:14:45.336Z,13.20
2023-02-24T00:17:16.328Z,11.77
2023-02-24T00:19:43.824Z,11.70
2023-02-24T00:22:10.940Z,10.57
2023-02-24T00:24:38.220Z,11.70
2023-02-24T00:27:11.773Z,10.77
2023-02-24T00:29:40.154Z,10.48
2023-02-24T00:32:12.321Z,10.02
2023-02-24T00:34:39.882Z,9.55
2023-02-24T00:37:07.241Z,9.70
2023-02-24T00:39:35.618Z,9.65
2023-02-24T00:42:04.833Z,10.55
2023-02-24T00:44:33.127Z,9.93
2023-02-24T00:47:04.861Z,10.15
2023-02-24T00:49:32.456Z,12.45
2023-02-24T00:52:00.262Z,10.85
2023-02-24T00:54:28.280Z,10.57
2023-02-24T00:56:56.141Z,10.90
2023-02-24T00:59:26.557Z,10.50
2023-02-24T01:01:54.752Z,9.98
2023-02-24T01:04:25.003Z,9.32
2023-02-24T01:07:00.044Z,10.73
2023-02-24T01:09:28.130Z,10.15
2023-02-24T01:12:13.920Z,10.02
2023-02-24T01:14:41.063Z,11.00
2023-02-24T01:17:08.749Z,11.63
2023-02-24T01:19:35.913Z,11.55
2023-02-24T01:22:05.088Z,11.88
2023-02-24T01:24:33.737Z,12.35
2023-02-24T01:27:00.843Z,11.70
2023-02-24T01:29:27.989Z,11.88
2023-02-24T01:31:58.529Z,10.68
2023-02-24T01:34:26.824Z,12.10
2023-02-24T01:36:54.238Z,13.90
2023-02-24T01:39:21.864Z,12.07
2023-02-24T01:41:52.981Z,11.38
2023-02-24T01:44:23.942Z,12.63
2023-02-24T01:46:54.347Z,13.13
2023-02-24T01:49:21.459Z,13.90
2023-02-24T01:51:52.251Z,15.30
2023-02-24T01:54:24.520Z,16.20
2023-02-24T01:56:52.372Z,16.42
2023-02-24T01:59:24.678Z,19.77
2023-02-24T02:01:55.303Z,18.27
2023-02-24T02:04:32.215Z,20.40
2023-02-24T02:06:59.301Z,19.33
2023-02-24T02:09:26.375Z,16.83
2023-02-24T02:11:53.433Z,15.10
2023-02-24T02:14:22.145Z,14.00
2023-02-24T02:16:49.452Z,12.45
2023-02-24T02:19:35.352Z,14.13
2023-02-24T02:22:02.423Z,12.27
2023-02-24T02:24:29.503Z,12.35
2023-02-24T02:26:58.180Z,10.52
2023-02-24T02:29:34.245Z,9.93
2023-02-24T02:32:05.744Z,10.55
2023-02-24T02:34:45.268Z,9.57
2023-02-24T02:37:12.385Z,9.38
2023-02-24T02:39:39.424Z,9.60
2023-02-24T02:42:25.171Z,9.63
2023-02-24T02:44:55.960Z,9.55
2023-02-24T02:47:34.979Z,9.38
2023-02-24T02:50:02.074Z,8.55
2023-02-24T02:52:42.344Z,8.52
2023-02-24T02:55:09.775Z,9.63
2023-02-24T02:57:37.950Z,8.77
2023-02-24T03:00:13.784Z,9.57
2023-02-24T03:02:44.415Z,9.45
2023-02-24T03:05:12.214Z,11.05
2023-02-24T03:07:42.779Z,9.70
2023-02-24T03:10:17.664Z,11.88
2023-02-24T03:12:47.066Z,10.45
2023-02-24T03:15:14.633Z,9.15
2023-02-24T03:17:45.369Z,11.52
2023-02-24T03:20:18.614Z,11.35
2023-02-24T03:23:05.819Z,10.68
2023-02-24T03:25:38.193Z,10.38
2023-02-24T03:28:10.763Z,11.70
2023-02-24T03:30:45.577Z,12.23
2023-02-24T03:33:31.217Z,12.27
2023-02-24T03:36:01.697Z,12.50
2023-02-24T03:38:32.589Z,13.27
2023-02-24T03:40:59.746Z,13.63
2023-02-24T03:43:32.519Z,16.08
2023-02-24T03:46:01.278Z,15.88
2023-02-24T03:48:29.193Z,15.25
2023-02-24T03:50:56.568Z,15.98
2023-02-24T03:53:35.839Z,13.57
2023-02-24T03:56:10.813Z,14.30
2023-02-24T03:58:46.971Z,15.65
2023-02-24T04:01:22.673Z,12.77
2023-02-24T04:03:50.244Z,13.05
2023-02-24T04:06:29.495Z,12.77
2023-02-24T04:09:15.363Z,14.70
2023-02-24T04:11:42.454Z,13.15
2023-02-24T04:14:24.829Z,13.10
2023-02-24T04:16:57.185Z,12.40
2023-02-24T04:19:29.165Z,12.43
2023-02-24T04:21:59.060Z,14.50
2023-02-24T04:24:29.307Z,13.13
2023-02-24T04:27:01.856Z,14.43
2023-02-24T04:29:35.423Z,15.55
2023-02-24T04:32:08.028Z,14.05
2023-02-24T04:34:35.311Z,14.70
2023-02-24T04:37:04.850Z,14.77
2023-02-24T04:39:38.357Z,13.98
2023-02-24T04:42:08.558Z,14.30
2023-02-24T04:44:37.857Z,15.38
2023-02-24T04:47:04.936Z,13.88
2023-02-24T04:49:32.095Z,15.60
2023-02-24T04:52:01.705Z,15.68
2023-02-24T04:54:29.722Z,15.82
2023-02-24T04:56:59.154Z,14.77
2023-02-24T04:59:28.837Z,15.70
2023-02-24T05:02:01.668Z,15.75
2023-02-24T05:04:31.431Z,15.65
2023-02-24T05:06:58.563Z,16.08
2023-02-24T05:09:29.995Z,17.10
2023-02-24T05:11:57.789Z,16.23
2023-02-24T05:14:25.048Z,16.98
2023-02-24T05:16:52.183Z,16.08
2023-02-24T05:19:39.050Z,17.17
2023-02-24T05:22:11.547Z,18.50
2023-02-24T05:24:38.671Z,19.63
2023-02-24T05:27:05.802Z,20.63
2023-02-24T05:29:34.243Z,18.73
2023-02-24T05:32:02.536Z,20.42
2023-02-24T05:34:30.796Z,20.67
2023-02-24T05:36:58.897Z,18.90
2023-02-24T05:39:26.362Z,20.08
2023-02-24T05:41:54.683Z,19.77
2023-02-24T05:44:22.664Z,19.38
2023-02-24T05:46:58.311Z,19.30
2023-02-24T05:49:32.908Z,19.27
2023-02-24T05:52:07.428Z,19.27
2023-02-24T05:54:39.313Z,19.05
2023-02-24T05:57:11.976Z,19.00
2023-02-24T05:59:44.899Z,17.77
2023-02-24T06:02:13.564Z,18.83
2023-02-24T06:04:51.303Z,18.35
2023-02-24T06:07:19.091Z,19.17
2023-02-24T06:09:49.977Z,18.40
2023-02-24T06:12:17.915Z,17.45
2023-02-24T06:14:45.131Z,17.25
2023-02-24T06:17:12.487Z,18.27
2023-02-24T06:19:41.222Z,18.45
2023-02-24T06:22:11.725Z,18.65
2023-02-24T06:24:44.157Z,18.50
2023-02-24T06:27:18.759Z,17.70
2023-02-24T06:29:49.948Z,15.85
2023-02-24T06:32:23.621Z,14.82
2023-02-24T06:34:51.802Z,14.63
2023-02-24T06:37:22.792Z,13.65
2023-02-24T06:39:49.591Z,14.23
2023-02-24T06:42:16.491Z,13.80
2023-02-24T06:44:45.653Z,13.30
2023-02-24T06:47:13.916Z,12.20
2023-02-24T06:49:42.825Z,11.70
2023-02-24T06:52:18.246Z,10.67
2023-02-24T06:54:47.462Z,10.95
2023-02-24T06:57:16.462Z,10.32
2023-02-24T06:59:43.322Z,10.85
2023-02-24T07:02:10.642Z,9.93
2023-02-24T07:04:43.754Z,7.80
2023-02-24T07:07:14.394Z,7.40
2023-02-24T07:09:45.357Z,6.53
2023-02-24T07:12:20.817Z,6.70
2023-02-24T07:14:50.369Z,5.18
2023-02-24T07:17:23.341Z,7.10
2023-02-24T07:19:54.525Z,6.35
2023-02-24T07:22:25.252Z,5.03
2023-02-24T07:25:00.186Z,4.95
2023-02-24T07:27:27.643Z,4.60
2023-02-24T07:29:54.432Z,5.22
2023-02-24T07:32:25.619Z,3.55
2023-02-24T07:34:52.914Z,3.28
2023-02-24T07:37:20.613Z,3.13
2023-02-24T07:39:47.435Z,3.30
2023-02-24T07:42:14.487Z,3.20
2023-02-24T07:44:42.563Z,3.10
2023-02-24T07:47:09.241Z,3.53
2023-02-24T07:49:36.937Z,3.97
2023-02-24T07:52:03.921Z,3.35
2023-02-24T07:54:30.678Z,4.63
2023-02-24T07:56:59.360Z,4.38
2023-02-24T07:59:38.077Z,4.25
2023-02-24T08:02:07.753Z,4.65
2023-02-24T08:04:36.329Z,4.50
2023-02-24T08:07:04.352Z,5.45
2023-02-24T08:09:44.891Z,6.03
2023-02-24T08:12:21.148Z,5.25
2023-02-24T08:14:52.283Z,5.57
2023-02-24T08:17:28.590Z,4.85
2023-02-24T08:20:14.566Z,5.75
2023-02-24T08:22:46.791Z,5.68
2023-02-24T08:25:19.775Z,4.85
2023-02-24T08:28:06.297Z,5.78
2023-02-24T08:30:38.754Z,4.15
2023-02-24T08:33:10.490Z,4.75
2023-02-24T08:35:38.988Z,4.25
2023-02-24T08:38:08.185Z,3.60
2023-02-24T08:40:36.379Z,4.60
2023-02-24T08:43:16.144Z,4.00
2023-02-24T08:45:50.304Z,3.78
2023-02-24T08:48:37.842Z,3.28
2023-02-24T08:51:09.860Z,3.30
2023-02-24T08:53:40.467Z,2.97
2023-02-24T08:56:09.704Z,2.65
2023-02-24T08:58:40.925Z,2.80
2023-02-24T09:01:20.105Z,3.00
2023-02-24T09:03:48.457Z,4.10
2023-02-24T09:06:17.502Z,2.90
2023-02-24T09:08:47.012Z,3.63
2023-02-24T09:11:15.191Z,3.15
2023-02-24T09:13:51.565Z,3.05
2023-02-24T09:16:23.532Z,2.75
2023-02-24T09:19:11.501Z,3.47
2023-02-24T09:21:49.896Z,3.92
2023-02-24T09:24:27.150Z,3.80
2023-02-24T09:26:58.660Z,3.00
2023-02-24T09:29:49.313Z,3.38
2023-02-24T09:32:17.002Z,3.53
2023-02-24T09:34:45.475Z,4.55
2023-02-24T09:37:28.696Z,3.70
2023-02-24T09:39:55.821Z,3.13
2023-02-24T09:42:26.897Z,2.92
2023-02-24T09:44:55.802Z,3.00
2023-02-24T09:47:51.228Z,3.45
2023-02-24T09:50:55.131Z,2.97
2023-02-24T09:53:18.357Z,2.78
2023-02-24T09:56:04.747Z,4.35
2023-02-24T09:58:49.846Z,3.05
2023-02-24T10:01:23.552Z,3.20
2023-02-24T10:03:51.869Z,3.17
2023-02-24T10:06:21.311Z,3.55
2023-02-24T10:08:55.070Z,3.72
2023-02-24T10:11:32.870Z,2.65
2023-02-24T10:14:05.725Z,2.70
2023-02-24T10:16:46.278Z,3.22
2023-02-24T10:19:34.384Z,2.70
2023-02-24T10:22:08.123Z,3.38
2023-02-24T10:24:47.222Z,3.63
2023-02-24T10:27:24.976Z,2.97
2023-02-24T10:30:03.936Z,3.50
2023-02-24T10:32:41.371Z,3.45
2023-02-24T10:35:18.625Z,4.00
2023-02-24T10:37:46.265Z,3.38
2023-02-24T10:40:24.742Z,3.25
2023-02-24T10:42:54.968Z,3.80
2023-02-24T10:45:26.693Z,4.32
2023-02-24T10:47:58.462Z,3.85
2023-02-24T10:50:25.554Z,3.88
2023-02-24T10:53:04.784Z,3.95
2023-02-24T10:55:44.335Z,3.28
2023-02-24T10:58:27.896Z,3.42
2023-02-24T11:01:18.085Z,3.72
2023-02-24T11:04:01.350Z,3.63
2023-02-24T11:06:52.297Z,3.15
2023-02-24T11:09:29.768Z,2.90
2023-02-24T11:12:16.811Z,2.60
2023-02-24T11:15:10.966Z,3.33
2023-02-24T11:17:38.966Z,2.80
2023-02-24T11:20:22.697Z,3.15
2023-02-24T11:22:52.474Z,3.20
2023-02-24T11:25:25.084Z,2.83
2023-02-24T11:27:57.259Z,2.83
2023-02-24T11:30:24.384Z,2.85
2023-02-24T11:33:06.543Z,3.25
2023-02-24T11:35:37.036Z,2.78
2023-02-24T11:38:07.786Z,2.78
2023-02-24T11:40:39.303Z,3.28
2023-02-24T11:43:18.453Z,3.53
2023-02-24T11:45:51.939Z,3.37
2023-02-24T11:48:23.766Z,3.33
2023-02-24T11:51:00.696Z,2.85
2023-02-24T11:53:27.787Z,3.08
2023-02-24T11:56:17.831Z,4.22
2023-02-24T12:01:25.020Z,3.55
2023-02-24T12:03:55.300Z,3.33
2023-02-24T12:06:31.117Z,2.92
2023-02-24T12:09:01.205Z,3.17
2023-02-24T12:14:03.325Z,3.03
2023-02-24T12:16:33.318Z,2.40
2023-02-24T12:21:30.666Z,2.80
2023-02-24T12:23:58.901Z,2.63
2023-02-24T12:26:42.686Z,2.97
2023-02-24T12:29:10.674Z,2.75
2023-02-24T12:31:53.443Z,2.97
2023-02-24T12:34:43.466Z,3.35
2023-02-24T12:37:30.249Z,3.15
2023-02-24T12:40:06.616Z,2.78
2023-02-24T12:42:38.869Z,2.60
2023-02-24T12:45:31.357Z,3.00
2023-02-24T12:48:04.412Z,3.42
2023-02-24T12:50:43.407Z,2.80
2023-02-24T12:53:16.825Z,2.70
2023-02-24T12:56:06.265Z,3.30
2023-02-24T12:58:35.493Z,3.25
2023-02-24T13:01:02.694Z,2.90
2023-02-24T13:03:40.406Z,2.70
2023-02-24T13:06:15.393Z,2.85
2023-02-24T13:08:45.465Z,2.50
2023-02-24T13:13:46.512Z,2.30
2023-02-24T13:16:13.718Z,2.70
2023-02-24T13:18:40.929Z,2.40
2023-02-24T13:21:24.740Z,2.78
2023-02-24T13:24:01.930Z,2.58
2023-02-24T13:26:30.926Z,2.83
2023-02-24T13:29:12.448Z,2.88
2023-02-24T13:31:43.802Z,2.65
2023-02-24T13:34:15.080Z,3.22
2023-02-24T13:36:49.518Z,2.67
2023-02-24T13:39:38.562Z,2.30
2023-02-24T13:42:22.069Z,2.47
2023-02-24T13:44:52.729Z,2.88
2023-02-24T13:47:37.999Z,2.40
2023-02-24T13:50:27.279Z,3.30
2023-02-24T13:52:57.431Z,2.38
2023-02-24T13:55:35.802Z,2.70
2023-02-24T13:58:02.858Z,2.45
2023-02-24T14:00:30.169Z,2.92
2023-02-24T14:03:00.426Z,2.20
2023-02-24T14:05:29.594Z,2.67
2023-02-24T14:07:59.576Z,2.70
2023-02-24T14:13:01.126Z,2.42
2023-02-24T14:15:28.726Z,2.60
2023-02-24T14:17:57.849Z,2.60
2023-02-24T14:20:25.569Z,3.17
2023-02-24T14:22:58.755Z,2.70
2023-02-24T14:25:29.819Z,2.67
2023-02-24T14:27:57.550Z,2.58
2023-02-24T14:30:32.223Z,2.88
2023-02-24T14:33:00.056Z,2.80
2023-02-24T14:35:27.308Z,4.13
2023-02-24T14:37:54.422Z,3.47
2023-02-24T14:40:25.325Z,3.13
2023-02-24T14:42:55.387Z,2.90
2023-02-24T14:47:49.540Z,2.47
2023-02-24T14:50:18.390Z,2.78
2023-02-24T14:52:51.095Z,2.80
2023-02-24T14:55:18.220Z,2.20
2023-02-24T14:57:49.165Z,3.22
2023-02-24T15:00:22.033Z,2.80
2023-02-24T15:02:52.190Z,2.78
2023-02-24T15:05:19.520Z,2.70
2023-02-24T15:07:47.027Z,2.70
2023-02-24T15:10:21.123Z,3.05
2023-02-24T15:12:50.205Z,3.38
2023-02-24T15:15:20.284Z,2.80
2023-02-24T15:20:31.525Z,2.72
2023-02-24T15:22:58.656Z,2.90
2023-02-24T15:25:37.145Z,2.92
2023-02-24T15:28:22.365Z,3.00
2023-02-24T15:31:11.475Z,3.20
2023-02-24T15:33:40.285Z,3.10
2023-02-24T15:36:09.869Z,3.20
2023-02-24T15:38:37.998Z,3.67
2023-02-24T15:41:06.013Z,3.30
2023-02-24T15:43:41.533Z,3.42
2023-02-24T15:46:28.850Z,3.00
2023-02-24T15:48:57.449Z,3.20
2023-02-24T15:51:35.829Z,3.10
2023-02-24T15:54:04.820Z,4.20
2023-02-24T15:56:33.672Z,2.95
2023-02-24T15:59:02.503Z,4.80
2023-02-24T16:01:31.111Z,5.30
2023-02-24T16:03:58.348Z,3.90
2023-02-24T16:06:26.383Z,3.90
2023-02-24T16:08:55.189Z,2.90
2023-02-24T16:11:26.351Z,2.83
2023-02-24T16:13:56.794Z,3.72
2023-02-24T16:16:25.038Z,2.85
2023-02-24T16:18:52.501Z,3.40
2023-02-24T16:21:19.975Z,2.75
2023-02-24T16:23:47.123Z,3.50
2023-02-24T16:26:16.575Z,3.05
2023-02-24T16:28:44.289Z,3.45
2023-02-24T16:31:11.621Z,2.58
2023-02-24T16:33:53.107Z,3.05
2023-02-24T16:36:21.853Z,2.67
2023-02-24T16:38:51.682Z,2.75
2023-02-24T16:41:18.899Z,2.60
2023-02-24T16:43:46.007Z,2.72
2023-02-24T16:46:23.622Z,2.92
2023-02-24T16:48:53.442Z,2.72
2023-02-24T16:51:20.955Z,2.67
2023-02-24T16:53:48.117Z,2.97
2023-02-24T16:56:15.699Z,2.75
2023-02-24T16:58:42.861Z,2.80
2023-02-24T17:01:14.184Z,2.83
2023-02-24T17:03:45.499Z,2.85
2023-02-24T17:06:12.733Z,2.70
2023-02-24T17:08:43.742Z,2.80
2023-02-24T17:11:21.290Z,2.80
2023-02-24T17:13:48.463Z,2.90
2023-02-24T17:16:18.012Z,2.75
2023-02-24T17:18:45.213Z,2.85
2023-02-24T17:21:13.803Z,3.25
2023-02-24T17:23:42.525Z,3.35
2023-02-24T17:26:11.358Z,3.17
2023-02-24T17:28:38.453Z,3.63
2023-02-24T17:31:07.488Z,3.30
2023-02-24T17:33:34.989Z,3.55
2023-02-24T17:36:02.145Z,4.30
2023-02-24T17:38:29.602Z,3.92
2023-02-24T17:40:57.530Z,4.20
2023-02-24T17:43:24.662Z,3.53
2023-02-24T17:45:54.185Z,3.38
2023-02-24T17:48:21.808Z,4.43
2023-02-24T17:50:49.127Z,4.60
2023-02-24T17:53:16.598Z,3.85
2023-02-24T17:56:01.140Z,3.78
2023-02-24T17:58:28.833Z,3.83
2023-02-24T18:00:56.159Z,4.70
2023-02-24T18:03:23.468Z,3.88
2023-02-24T18:06:00.622Z,4.00
2023-02-24T18:08:27.878Z,4.57
2023-02-24T18:10:54.992Z,3.95
2023-02-24T18:13:22.079Z,5.22
2023-02-24T18:15:49.240Z,5.25
2023-02-24T18:18:16.411Z,4.55
2023-02-24T18:20:44.068Z,4.63
2023-02-24T18:23:11.852Z,4.82
2023-02-24T18:25:41.566Z,5.28
2023-02-24T18:28:08.978Z,5.05
2023-02-24T18:30:36.244Z,4.85
2023-02-24T18:33:03.507Z,3.80
2023-02-24T18:35:31.179Z,5.13
2023-02-24T18:37:58.359Z,4.85
2023-02-24T18:40:29.260Z,4.55
2023-02-24T18:42:56.454Z,5.50
2023-02-24T18:45:24.215Z,5.47
2023-02-24T18:47:54.706Z,6.10
2023-02-24T18:50:25.063Z,6.82
2023-02-24T18:52:52.399Z,6.37
2023-02-24T18:55:19.809Z,6.18
2023-02-24T18:57:47.430Z,5.90
2023-02-24T19:00:15.502Z,6.05
2023-02-24T19:02:42.682Z,6.45
2023-02-24T19:05:10.028Z,7.38
2023-02-24T19:07:39.368Z,7.75
2023-02-24T19:10:07.006Z,7.70
2023-02-24T19:12:34.162Z,6.82
2023-02-24T19:15:01.409Z,6.43
2023-02-24T19:17:28.491Z,5.88
2023-02-24T19:19:55.625Z,6.80
2023-02-24T19:22:22.727Z,7.30
2023-02-24T19:24:49.827Z,7.72
2023-02-24T19:27:16.918Z,7.32
2023-02-24T19:29:44.008Z,8.48
2023-02-24T19:32:13.684Z,8.43
2023-02-24T19:34:40.968Z,7.50
2023-02-24T19:37:08.084Z,7.68
2023-02-24T19:39:35.235Z,6.97
2023-02-24T19:42:02.595Z,8.23
2023-02-24T19:44:29.735Z,7.28
2023-02-24T19:46:56.879Z,6.75
2023-02-24T19:49:26.431Z,6.25
2023-02-24T19:51:54.933Z,6.82
2023-02-24T19:54:25.223Z,6.10
2023-02-24T19:56:52.583Z,6.07
2023-02-24T19:59:19.719Z,6.07
2023-02-24T20:01:46.954Z,5.95
2023-02-24T20:04:14.104Z,6.05
2023-02-24T20:06:43.653Z,4.93
2023-02-24T20:09:12.376Z,5.80
2023-02-24T20:11:44.735Z,4.03
2023-02-24T20:14:12.546Z,3.15
2023-02-24T20:16:40.584Z,1.95
2023-02-24T20:19:11.424Z,1.58
2023-02-24T20:21:41.256Z,1.30
2023-02-24T20:24:13.769Z,1.50
2023-02-24T20:26:42.096Z,1.80
2023-02-24T20:29:09.570Z,2.00
2023-02-24T20:31:36.800Z,1.63
2023-02-24T20:34:04.718Z,1.90
2023-02-24T20:36:31.930Z,1.70
2023-02-24T20:38:59.723Z,2.15
2023-02-24T20:41:27.316Z,2.50
2023-02-24T20:43:55.181Z,2.08
2023-02-24T20:46:25.447Z,2.92
2023-02-24T20:48:53.455Z,3.42
2023-02-24T20:51:20.652Z,3.67
2023-02-24T20:53:57.349Z,3.10
2023-02-24T20:56:25.812Z,4.05
2023-02-24T20:59:00.784Z,3.65
2023-02-24T21:01:28.173Z,3.05
2023-02-24T21:03:55.371Z,3.85
2023-02-24T21:06:23.114Z,3.53
2023-02-24T21:08:51.222Z,3.05
2023-02-24T21:11:20.561Z,2.80
2023-02-24T21:13:51.510Z,2.40
2023-02-24T21:16:21.816Z,1.92
2023-02-24T21:18:50.425Z,2.55
2023-02-24T21:21:19.429Z,1.70
2023-02-24T21:23:46.876Z,2.45
2023-02-24T21:26:14.064Z,2.55
2023-02-24T21:28:41.567Z,2.28
2023-02-24T21:31:12.504Z,2.60
2023-02-24T21:33:39.850Z,2.30
2023-02-24T21:36:09.246Z,2.13
2023-02-24T21:38:36.996Z,2.45
2023-02-24T21:41:07.517Z,2.53
2023-02-24T21:43:35.003Z,2.33
2023-02-24T21:46:03.065Z,2.28
2023-02-24T21:48:32.637Z,2.20
2023-02-24T21:51:00.643Z,1.83
2023-02-24T21:53:27.739Z,2.15
2023-02-24T21:56:17.357Z,2.72
2023-02-24T21:58:45.873Z,2.55
2023-02-24T22:01:19.434Z,1.90
2023-02-24T22:03:46.582Z,2.75
2023-02-24T22:06:14.672Z,2.55
2023-02-24T22:08:45.666Z,3.28
2023-02-24T22:11:16.417Z,3.45
2023-02-24T22:13:44.005Z,2.78
2023-02-24T22:16:12.852Z,2.70
2023-02-24T22:18:40.203Z,2.45
2023-02-24T22:21:11.695Z,2.20
2023-02-24T22:23:38.847Z,2.05
2023-02-24T22:26:10.300Z,2.45
2023-02-24T22:28:41.026Z,2.20
2023-02-24T22:31:08.896Z,2.13
2023-02-24T22:33:37.404Z,2.65
2023-02-24T22:36:08.527Z,2.38
2023-02-24T22:38:38.779Z,2.75
2023-02-24T22:41:10.674Z,2.88
2023-02-24T22:43:37.864Z,2.30
2023-02-24T22:46:06.523Z,3.33
2023-02-24T22:48:35.040Z,3.08
2023-02-24T22:51:03.474Z,2.55
2023-02-24T22:53:31.030Z,3.35
2023-02-24T22:56:00.699Z,2.83
2023-02-24T22:58:30.445Z,2.72
2023-02-24T23:00:58.464Z,2.75
2023-02-24T23:03:33.474Z,3.08
2023-02-24T23:06:01.900Z,2.85
2023-02-24T23:08:30.016Z,2.65
2023-02-24T23:11:03.590Z,3.15
2023-02-24T23:13:35.078Z,4.38
2023-02-24T23:16:03.497Z,2.78
2023-02-24T23:18:31.417Z,3.70
2023-02-24T23:21:03.254Z,2.92
2023-02-24T23:23:30.929Z,3.33
2023-02-24T23:26:00.671Z,2.90
2023-02-24T23:28:27.811Z,2.53
2023-02-24T23:30:55.470Z,2.65
2023-02-24T23:33:23.005Z,2.55
2023-02-24T23:35:50.182Z,2.60
2023-02-24T23:38:17.358Z,3.10
2023-02-24T23:40:49.966Z,2.75
2023-02-24T23:43:17.656Z,2.03
2023-02-24T23:45:47.284Z,2.55
2023-02-24T23:48:15.005Z,3.45
2023-02-24T23:50:45.777Z,2.88
2023-02-24T23:53:13.373Z,3.35
2023-02-24T23:55:42.794Z,3.08
2023-02-24T23:58:12.372Z,2.45
